Time;durP1;ratioP1;P1;durP2;ratioP2;P2;SDS_P1;SDS_P2;PMS_P1;PMS_P2;Temp;Humidity;BMP_temperature;BMP_pressure;BME280_temperature;BME280_humidity;BME280_pressure;Samples;Min_cycle;Max_cycle;Signal;HPM_P1;HPM_P2
2021/08/02 00:00:17;;;;;;;7.10;4.97;;;;;;;16.12;78.88;101006.94;4986585;28;20042;-71
2021/08/02 00:02:49;;;;;;;8.10;5.18;;;;;;;16.14;78.87;100996.25;4995877;28;20060;-72
2021/08/02 00:05:15;;;;;;;10.38;6.00;;;;;;;16.14;78.57;101006.72;4969794;28;20352;-72
2021/08/02 00:07:42;;;;;;;8.55;5.40;;;;;;;16.11;78.90;101014.97;4994484;28;20053;-71
2021/08/02 00:10:12;;;;;;;8.63;4.60;;;;;;;16.13;79.09;101015.59;5001904;28;20109;-71
2021/08/02 00:13:01;;;;;;;11.55;6.10;;;;;;;16.15;78.97;101008.34;5013676;28;20057;-71
2021/08/02 00:15:28;;;;;;;9.77;5.93;;;;;;;16.07;79.26;101017.16;4999805;28;20026;-71
2021/08/02 00:17:54;;;;;;;7.10;4.93;;;;;;;16.05;79.61;101013.06;5006097;28;20120;-71
2021/08/02 00:20:29;;;;;;;10.45;6.32;;;;;;;16.06;79.74;101014.72;4992614;28;20030;-71
2021/08/02 00:22:56;;;;;;;8.63;5.50;;;;;;;16.07;79.51;101017.16;5011313;28;20037;-71
2021/08/02 00:25:22;;;;;;;6.50;4.55;;;;;;;16.08;79.43;101010.91;5005023;28;20034;-71
2021/08/02 00:27:50;;;;;;;5.85;4.47;;;;;;;16.09;79.37;101017.75;5000077;28;20028;-71
2021/08/02 00:30:15;;;;;;;9.50;4.65;;;;;;;16.13;79.28;101016.38;5000061;28;20091;-72
2021/08/02 00:32:40;;;;;;;6.45;4.50;;;;;;;16.14;78.44;101015.41;5000760;28;20368;-71
2021/08/02 00:35:06;;;;;;;11.00;4.65;;;;;;;16.13;78.19;101016.38;4999612;28;20038;-71
2021/08/02 00:38:15;;;;;;;8.48;5.25;;;;;;;16.11;77.98;101017.59;5003358;28;20065;-72
2021/08/02 00:41:13;;;;;;;9.65;5.22;;;;;;;16.09;77.74;101025.59;4984300;28;20182;-71
2021/08/02 00:43:47;;;;;;;8.70;4.60;;;;;;;16.10;77.52;101024.59;4987242;28;20030;-71
2021/08/02 00:46:13;;;;;;;6.35;4.45;;;;;;;16.05;77.50;101026.16;5000090;28;20073;-71
2021/08/02 00:49:02;;;;;;;5.05;3.50;;;;;;;16.00;77.62;101012.84;5000337;28;20108;-71
2021/08/02 00:51:37;;;;;;;8.40;3.83;;;;;;;16.00;77.59;101025.94;5007571;28;20022;-71
2021/08/02 00:54:05;;;;;;;7.32;3.88;;;;;;;15.99;77.63;101013.84;5008842;28;20060;-71
2021/08/02 00:56:34;;;;;;;6.82;3.60;;;;;;;15.99;77.48;101017.25;5006159;28;20025;-71
2021/08/02 00:59:04;;;;;;;6.72;3.55;;;;;;;16.00;77.54;101018.06;4994489;28;20048;-72
2021/08/02 01:01:35;;;;;;;8.65;3.45;;;;;;;16.00;77.36;101012.84;4987102;28;20446;-71
2021/08/02 01:04:02;;;;;;;6.65;3.70;;;;;;;15.99;77.34;101019.88;5002145;28;20490;-71
2021/08/02 01:06:31;;;;;;;7.75;4.43;;;;;;;16.01;77.00;101020.50;4969444;28;20034;-71
2021/08/02 01:09:01;;;;;;;7.13;3.88;;;;;;;16.00;77.20;101025.94;5010674;28;20078;-71
2021/08/02 01:11:28;;;;;;;5.63;4.10;;;;;;;16.01;77.26;101030.97;4991042;28;20041;-71
2021/08/02 01:13:57;;;;;;;5.80;3.20;;;;;;;15.98;77.32;101023.50;4990898;28;20034;-71
2021/08/02 01:16:25;;;;;;;7.15;3.70;;;;;;;15.96;77.50;101022.88;5008843;28;20415;-71
2021/08/02 01:18:57;;;;;;;14.48;3.42;;;;;;;15.95;77.60;101026.47;4992048;28;20084;-71
2021/08/02 01:21:31;;;;;;;7.63;3.80;;;;;;;15.94;77.58;101027.47;5018238;28;20026;-71
2021/08/02 01:23:57;;;;;;;7.25;3.65;;;;;;;15.93;77.49;101023.22;5001452;28;20061;-71
2021/08/02 01:26:57;;;;;;;7.80;3.22;;;;;;;15.91;77.40;101018.19;5003357;28;20030;-72
2021/08/02 01:30:01;;;;;;;8.20;3.80;;;;;;;15.90;77.04;101018.38;4940522;28;20041;-72
2021/08/02 01:32:30;;;;;;;7.28;3.33;;;;;;;15.90;76.62;101018.38;5008755;28;20034;-72
2021/08/02 01:35:04;;;;;;;6.60;3.60;;;;;;;15.95;76.01;101027.28;4982304;28;20038;-72
2021/08/02 01:37:29;;;;;;;9.75;4.07;;;;;;;15.92;75.79;101021.63;5013178;28;20037;-72
2021/08/02 01:39:56;;;;;;;6.70;3.85;;;;;;;15.86;76.14;101017.94;4991314;28;20129;-72
2021/08/02 01:42:24;;;;;;;8.32;3.53;;;;;;;15.83;76.34;101023.53;5001200;28;20034;-72
2021/08/02 01:44:52;;;;;;;5.13;2.83;;;;;;;15.79;76.19;101027.50;4996187;28;20041;-72
2021/08/02 01:47:38;;;;;;;6.15;3.70;;;;;;;15.87;75.56;101030.00;5011208;28;20483;-73
2021/08/02 01:50:14;;;;;;;7.07;3.38;;;;;;;15.89;75.48;101032.44;4996576;28;20052;-72
2021/08/02 01:52:57;;;;;;;9.77;3.72;;;;;;;15.84;75.14;101035.63;4990150;28;20487;-73
2021/08/02 01:55:24;;;;;;;5.60;3.33;;;;;;;15.83;75.12;101036.59;4989608;28;20431;-72
2021/08/02 01:58:02;;;;;;;6.80;3.47;;;;;;;15.81;74.82;101030.75;4974552;28;20407;-72
2021/08/02 02:00:42;;;;;;;5.20;2.80;;;;;;;15.77;74.71;101029.50;4990792;28;20069;-73
2021/08/02 02:03:14;;;;;;;4.78;3.00;;;;;;;15.73;75.09;101031.69;4983233;28;20034;-72
2021/08/02 02:05:56;;;;;;;10.00;3.65;;;;;;;15.70;74.75;101034.63;5007144;28;20120;-72
2021/08/02 02:08:29;;;;;;;9.88;3.50;;;;;;;15.67;74.57;101029.78;4986956;28;20057;-73
2021/08/02 02:10:59;;;;;;;5.70;2.53;;;;;;;15.65;74.84;101025.72;4998857;28;20034;-72
2021/08/02 02:13:42;;;;;;;8.27;3.13;;;;;;;15.61;74.76;101030.50;4991733;28;20065;-72
2021/08/02 02:16:10;;;;;;;9.95;2.80;;;;;;;15.60;74.33;101026.28;4988985;28;20030;-73
2021/08/02 02:18:40;;;;;;;8.15;3.25;;;;;;;15.56;74.45;101035.47;4989333;28;20499;-72
2021/08/02 02:21:08;;;;;;;5.93;2.53;;;;;;;15.53;74.23;101034.03;4981640;28;20045;-72
2021/08/02 02:23:36;;;;;;;5.78;2.47;;;;;;;15.51;74.46;101035.22;4985065;28;20040;-73
2021/08/02 02:26:09;;;;;;;6.95;2.63;;;;;;;15.50;74.49;101036.19;4962053;28;20034;-72
2021/08/02 02:28:36;;;;;;;11.25;3.00;;;;;;;15.54;74.14;101027.81;4999433;28;20061;-72
2021/08/02 02:31:11;;;;;;;5.88;2.65;;;;;;;15.52;74.25;101031.59;4984730;28;20125;-72
2021/08/02 02:33:40;;;;;;;5.57;2.40;;;;;;;15.50;73.56;101037.03;4978632;28;20494;-72
2021/08/02 02:36:06;;;;;;;8.45;2.80;;;;;;;15.48;73.91;101040.78;5001355;28;20439;-73
2021/08/02 02:38:34;;;;;;;5.10;2.40;;;;;;;15.47;74.33;101040.00;4968663;28;20503;-72
2021/08/02 02:41:01;;;;;;;4.95;1.90;;;;;;;15.48;74.51;101035.56;4985767;28;20038;-73
2021/08/02 02:43:32;;;;;;;10.35;3.38;;;;;;;15.47;74.45;101033.97;4994975;28;20030;-72
2021/08/02 02:46:00;;;;;;;6.03;2.70;;;;;;;15.49;74.82;101035.38;4987619;28;20361;-72
2021/08/02 02:48:26;;;;;;;7.50;2.30;;;;;;;15.50;74.94;101033.56;4992745;28;20029;-72
2021/08/02 02:50:53;;;;;;;5.85;2.08;;;;;;;15.48;74.98;101030.34;4980184;28;20029;-72
2021/08/02 02:53:19;;;;;;;7.25;2.45;;;;;;;15.48;75.29;101038.16;5003430;28;20118;-72
2021/08/02 02:55:46;;;;;;;5.50;2.50;;;;;;;15.45;75.40;101038.56;4992882;28;20448;-72
2021/08/02 02:58:13;;;;;;;7.63;2.50;;;;;;;15.46;75.41;101040.97;4986465;28;20034;-72
2021/08/02 03:00:39;;;;;;;4.70;2.40;;;;;;;15.48;75.61;101040.78;4982891;28;20495;-72
2021/08/02 03:03:08;;;;;;;7.63;1.90;;;;;;;15.50;75.50;101042.25;4979427;28;20106;-72
2021/08/02 03:05:38;;;;;;;7.68;3.00;;;;;;;15.54;75.15;101032.25;4995424;28;20038;-72
2021/08/02 03:08:06;;;;;;;5.75;2.45;;;;;;;15.51;75.40;101029.97;4986685;28;20456;-72
2021/08/02 03:10:33;;;;;;;4.15;2.78;;;;;;;15.51;75.56;101028.16;4983844;28;20029;-72
2021/08/02 03:12:59;;;;;;;5.88;2.60;;;;;;;15.50;75.34;101031.78;4982975;28;20408;-72
2021/08/02 03:15:25;;;;;;;9.07;2.55;;;;;;;15.50;75.50;101030.97;5001232;28;20033;-72
2021/08/02 03:17:51;;;;;;;4.55;2.22;;;;;;;15.48;75.50;101038.16;5003369;28;20091;-72
2021/08/02 03:20:17;;;;;;;5.18;2.47;;;;;;;15.47;75.79;101037.38;4999095;28;20034;-72
2021/08/02 03:22:50;;;;;;;5.30;2.70;;;;;;;15.51;75.52;101040.44;4987359;28;20053;-72
2021/08/02 03:25:36;;;;;;;4.97;2.10;;;;;;;15.51;75.26;101041.25;4985250;28;20034;-72
2021/08/02 03:28:38;;;;;;;4.90;2.78;;;;;;;15.50;75.38;101044.03;5005374;28;20125;-72
2021/08/02 03:31:09;;;;;;;10.30;3.88;;;;;;;15.47;75.82;101047.03;5003164;28;20167;-72
2021/08/02 03:33:37;;;;;;;12.13;2.78;;;;;;;15.43;76.08;101049.19;5002014;28;20034;-72
2021/08/02 03:36:16;;;;;;;10.00;2.97;;;;;;;15.38;76.40;101051.53;5003592;28;20129;-72
2021/08/02 03:38:45;;;;;;;7.78;2.35;;;;;;;15.36;76.74;101046.47;4985763;28;20537;-72
2021/08/02 03:41:12;;;;;;;7.88;2.85;;;;;;;15.38;76.46;101049.72;4998742;28;20520;-72
2021/08/02 03:43:40;;;;;;;4.45;2.58;;;;;;;15.38;76.61;101047.09;4990077;28;20057;-72
2021/08/02 03:46:07;;;;;;;5.95;2.90;;;;;;;15.40;76.47;101053.97;5003105;28;20463;-72
2021/08/02 03:48:35;;;;;;;9.38;2.70;;;;;;;15.41;76.45;101050.34;4998638;28;20507;-72
2021/08/02 03:51:01;;;;;;;6.15;2.65;;;;;;;15.43;76.18;101053.59;4975745;28;20072;-73
2021/08/02 03:53:27;;;;;;;6.25;2.80;;;;;;;15.44;76.08;101060.44;4985207;28;20133;-72
2021/08/02 03:55:53;;;;;;;4.63;3.08;;;;;;;15.44;75.98;101063.06;5010177;28;20491;-72
2021/08/02 03:58:18;;;;;;;10.23;3.13;;;;;;;15.41;76.16;101060.78;5006626;28;20116;-72
2021/08/02 04:00:44;;;;;;;5.60;2.35;;;;;;;15.42;76.23;101065.84;4985453;28;20034;-72
2021/08/02 04:03:10;;;;;;;5.55;2.50;;;;;;;15.41;75.98;101066.84;4993323;28;20038;-71
2021/08/02 04:05:36;;;;;;;5.97;2.75;;;;;;;15.38;76.14;101062.78;5008406;28;20064;-72
2021/08/02 04:08:02;;;;;;;4.32;2.70;;;;;;;15.41;76.09;101063.41;5010206;28;20042;-72
2021/08/02 04:10:29;;;;;;;3.95;2.45;;;;;;;15.41;76.12;101060.78;5007683;28;20036;-72
2021/08/02 04:12:54;;;;;;;4.68;2.55;;;;;;;15.38;75.94;101068.00;5003004;28;20062;-71
2021/08/02 04:15:21;;;;;;;4.28;2.60;;;;;;;15.34;75.87;101071.16;5010542;28;20057;-71
2021/08/02 04:17:46;;;;;;;5.60;2.25;;;;;;;15.33;75.65;101075.59;5002133;28;20034;-71
2021/08/02 04:20:14;;;;;;;7.30;2.95;;;;;;;15.34;75.41;101071.16;5011056;28;20038;-71
2021/08/02 04:22:39;;;;;;;5.18;3.03;;;;;;;15.33;75.69;101072.16;4986423;28;20029;-71
2021/08/02 04:25:07;;;;;;;4.78;2.75;;;;;;;15.33;75.74;101075.59;5006499;28;20057;-71
2021/08/02 04:27:32;;;;;;;6.60;2.72;;;;;;;15.31;75.81;101076.75;5012957;28;20037;-71
2021/08/02 04:29:57;;;;;;;7.82;3.38;;;;;;;15.32;76.01;101089.63;5007859;28;20033;-71
2021/08/02 04:32:23;;;;;;;7.45;2.97;;;;;;;15.29;76.24;101087.38;5009667;28;20388;-71
2021/08/02 04:34:48;;;;;;;8.52;3.00;;;;;;;15.27;77.05;101094.56;5002516;28;20026;-71
2021/08/02 04:37:14;;;;;;;7.00;2.95;;;;;;;15.24;76.94;101097.56;5007493;28;20400;-71
2021/08/02 04:39:39;;;;;;;5.60;2.65;;;;;;;15.26;77.00;101095.59;5007531;28;20041;-71
2021/08/02 04:42:05;;;;;;;6.65;2.60;;;;;;;15.28;76.77;101098.03;4994320;28;20425;-71
2021/08/02 04:44:30;;;;;;;6.53;2.58;;;;;;;15.28;76.59;101087.56;5011156;28;20037;-71
2021/08/02 04:46:56;;;;;;;5.78;2.45;;;;;;;15.28;76.17;101084.97;5009495;28;20403;-71
2021/08/02 04:49:21;;;;;;;5.60;2.15;;;;;;;15.26;75.73;101079.09;5002061;28;20519;-71
2021/08/02 04:51:47;;;;;;;8.65;2.60;;;;;;;15.25;75.24;101083.50;5013765;28;20033;-71
2021/08/02 04:54:12;;;;;;;7.95;2.65;;;;;;;15.26;75.32;101085.13;5000017;28;20026;-71
2021/08/02 04:56:38;;;;;;;5.35;2.65;;;;;;;15.28;75.48;101087.56;5003191;28;20025;-71
2021/08/02 04:59:05;;;;;;;6.30;2.55;;;;;;;15.28;75.68;101088.38;4983044;28;20661;-71
2021/08/02 05:01:30;;;;;;;6.78;3.17;;;;;;;15.32;75.32;101088.84;5002042;28;20025;-72
2021/08/02 05:03:55;;;;;;;4.20;2.80;;;;;;;15.37;75.34;101094.34;5006949;28;20119;-72
2021/08/02 05:06:21;;;;;;;10.15;2.30;;;;;;;15.41;75.35;101092.97;4993190;28;20116;-72
2021/08/02 05:08:46;;;;;;;10.77;3.83;;;;;;;15.45;75.18;101093.44;5003355;28;20026;-72
2021/08/02 05:11:12;;;;;;;8.32;2.45;;;;;;;15.46;75.35;101093.22;5010635;28;20107;-72
2021/08/02 05:13:37;;;;;;;4.25;2.10;;;;;;;15.50;75.27;101094.50;5005575;28;20029;-72
2021/08/02 05:16:06;;;;;;;5.82;2.45;;;;;;;15.53;75.46;101098.56;5004085;28;20056;-72
2021/08/02 05:18:32;;;;;;;5.43;2.42;;;;;;;15.54;75.64;101097.56;5007759;28;20031;-72
2021/08/02 05:20:57;;;;;;;8.02;3.97;;;;;;;15.52;75.96;101097.75;5000157;28;20045;-72
2021/08/02 05:23:23;;;;;;;7.20;2.85;;;;;;;15.53;76.15;101103.78;4997014;28;20046;-72
2021/08/02 05:25:48;;;;;;;8.52;3.22;;;;;;;15.50;76.40;101096.28;5006748;28;20030;-72
2021/08/02 05:28:14;;;;;;;7.20;3.00;;;;;;;15.47;76.70;101100.09;5007529;28;20042;-72
2021/08/02 05:30:39;;;;;;;6.65;3.75;;;;;;;15.46;76.90;101095.03;4991645;28;20026;-72
2021/08/02 05:33:05;;;;;;;10.40;3.55;;;;;;;15.47;76.97;101094.06;5002563;28;20407;-72
2021/08/02 05:35:30;;;;;;;7.38;3.28;;;;;;;15.45;77.00;101102.06;5000364;28;20034;-72
2021/08/02 05:37:56;;;;;;;7.10;4.05;;;;;;;15.46;76.80;101106.28;5012828;28;20025;-72
2021/08/02 05:40:22;;;;;;;6.68;4.03;;;;;;;15.45;77.02;101104.69;5002916;28;20515;-72
2021/08/02 05:42:47;;;;;;;8.48;3.65;;;;;;;15.46;77.20;101110.72;5011648;28;20557;-72
2021/08/02 05:45:13;;;;;;;8.77;4.13;;;;;;;15.46;76.74;101106.28;4980573;28;20033;-72
2021/08/02 05:47:39;;;;;;;6.65;3.70;;;;;;;15.46;76.72;101111.50;5007667;28;20479;-72
2021/08/02 05:50:06;;;;;;;6.93;3.97;;;;;;;15.46;77.14;101113.31;4987657;28;20038;-72
2021/08/02 05:52:31;;;;;;;6.35;3.60;;;;;;;15.47;77.08;101120.19;5003244;28;20046;-72
2021/08/02 05:54:57;;;;;;;5.93;3.60;;;;;;;15.47;76.94;101107.13;4992099;28;20026;-72
2021/08/02 05:57:23;;;;;;;8.27;3.88;;;;;;;15.49;76.88;101107.75;4980547;28;20026;-72
2021/08/02 05:59:48;;;;;;;8.70;2.92;;;;;;;15.52;76.74;101108.19;5005381;28;20037;-72
2021/08/02 06:02:14;;;;;;;10.43;3.45;;;;;;;15.56;76.91;101113.88;5000073;28;20513;-72
2021/08/02 06:04:41;;;;;;;17.70;4.75;;;;;;;15.58;76.87;101115.31;4996750;28;20046;-72
2021/08/02 06:07:06;;;;;;;10.32;3.80;;;;;;;15.61;76.61;101116.75;5003319;28;20037;-72
2021/08/02 06:09:32;;;;;;;6.38;3.47;;;;;;;15.61;76.78;101121.97;4984631;28;20402;-72
2021/08/02 06:11:57;;;;;;;8.82;3.42;;;;;;;15.60;76.55;101120.38;4994866;28;20030;-72
2021/08/02 06:14:23;;;;;;;5.60;2.85;;;;;;;15.60;76.46;101128.19;5002556;28;20025;-72
2021/08/02 06:16:50;;;;;;;6.75;3.20;;;;;;;15.61;75.83;101129.81;4997272;28;20026;-72
2021/08/02 06:19:16;;;;;;;5.85;2.47;;;;;;;15.64;75.22;101129.47;5002680;28;20042;-72
2021/08/02 06:21:42;;;;;;;6.13;2.78;;;;;;;15.62;74.72;101125.41;4977221;28;20038;-72
2021/08/02 06:24:08;;;;;;;4.38;2.70;;;;;;;15.64;74.29;101131.28;4990379;28;20029;-72
2021/08/02 06:26:33;;;;;;;5.85;3.33;;;;;;;15.67;74.32;101134.34;5003707;28;20030;-72
2021/08/02 06:28:59;;;;;;;5.50;2.75;;;;;;;15.69;73.92;101136.75;5005351;28;20037;-72
2021/08/02 06:31:24;;;;;;;9.43;4.10;;;;;;;15.69;73.84;101134.97;4995398;28;20053;-72
2021/08/02 06:33:50;;;;;;;9.27;3.22;;;;;;;15.72;73.78;101134.56;5008362;28;20036;-72
2021/08/02 06:36:19;;;;;;;11.07;3.90;;;;;;;15.70;73.80;101139.19;5005069;28;20026;-72
2021/08/02 06:38:45;;;;;;;5.25;3.28;;;;;;;15.74;73.19;101143.09;5004316;28;20036;-72
2021/08/02 06:41:10;;;;;;;12.50;3.65;;;;;;;15.84;72.93;101149.84;4991938;28;20416;-72
2021/08/02 06:43:36;;;;;;;6.35;3.22;;;;;;;15.79;72.06;101153.00;5005352;28;20046;-72
2021/08/02 06:46:02;;;;;;;7.93;2.60;;;;;;;15.76;72.14;101146.34;4989513;28;20043;-72
2021/08/02 06:48:27;;;;;;;9.50;2.50;;;;;;;15.75;70.88;101151.75;5006889;28;20380;-72
2021/08/02 06:50:54;;;;;;;6.53;3.05;;;;;;;15.70;71.08;101160.09;5002298;28;20197;-72
2021/08/02 06:53:19;;;;;;;6.75;2.42;;;;;;;15.81;71.21;101158.88;4980590;28;20029;-72
2021/08/02 06:55:47;;;;;;;5.05;2.58;;;;;;;15.84;71.63;101152.44;4966816;28;20027;-73
2021/08/02 06:58:13;;;;;;;9.60;1.92;;;;;;;15.89;71.99;101150.91;5003646;28;20495;-73
2021/08/02 07:00:39;;;;;;;11.20;2.60;;;;;;;16.02;70.77;101154.69;4983629;28;20026;-73
2021/08/02 07:03:05;;;;;;;10.05;3.00;;;;;;;16.11;70.29;101157.03;5002237;28;20025;-73
2021/08/02 07:05:31;;;;;;;6.88;2.50;;;;;;;16.17;70.76;101158.09;5010868;28;20087;-73
2021/08/02 07:07:57;;;;;;;4.78;2.70;;;;;;;16.22;70.19;101163.59;4988212;28;20037;-73
2021/08/02 07:10:22;;;;;;;8.93;2.40;;;;;;;16.30;69.87;101160.03;4973092;28;20041;-73
2021/08/02 07:12:48;;;;;;;7.97;1.73;;;;;;;16.31;68.32;101165.09;4983395;28;20030;-73
2021/08/02 07:15:13;;;;;;;22.27;9.38;;;;;;;16.41;67.48;101170.03;5005183;28;20470;-72
2021/08/02 07:17:39;;;;;;;10.55;3.78;;;;;;;16.48;67.06;101170.91;4988358;28;20073;-72
2021/08/02 07:20:05;;;;;;;8.73;2.80;;;;;;;16.54;67.44;101164.94;5001232;28;20057;-71
2021/08/02 07:22:31;;;;;;;6.32;2.63;;;;;;;16.65;67.01;101165.41;5009254;28;20057;-72
2021/08/02 07:24:56;;;;;;;6.28;2.40;;;;;;;16.83;67.42;101165.00;5006182;28;20371;-72
2021/08/02 07:27:21;;;;;;;6.35;2.60;;;;;;;16.89;66.46;101165.06;4994553;28;20365;-72
2021/08/02 07:29:47;;;;;;;5.93;2.95;;;;;;;16.91;66.20;101170.94;4982585;28;20038;-72
2021/08/02 07:32:12;;;;;;;8.73;2.97;;;;;;;16.89;66.41;101165.06;4996544;28;20038;-72
2021/08/02 07:34:38;;;;;;;7.53;2.75;;;;;;;16.90;67.79;101171.13;4998423;28;20034;-73
2021/08/02 07:37:04;;;;;;;9.23;3.10;;;;;;;16.83;68.20;101167.63;4992770;28;20426;-72
2021/08/02 07:39:30;;;;;;;6.88;2.45;;;;;;;16.81;68.26;101169.59;5008277;28;20390;-71
2021/08/02 07:41:56;;;;;;;6.28;2.70;;;;;;;16.78;67.71;101172.59;4999898;28;20383;-72
2021/08/02 07:44:22;;;;;;;12.15;3.10;;;;;;;16.79;67.25;101179.47;4997314;28;20034;-73
2021/08/02 07:46:47;;;;;;;9.10;2.90;;;;;;;16.69;66.60;101170.09;5006165;28;20033;-72
2021/08/02 07:49:13;;;;;;;10.35;2.80;;;;;;;16.57;66.39;101181.25;5003444;28;20213;-72
2021/08/02 07:51:38;;;;;;;8.25;2.17;;;;;;;16.48;66.80;101175.31;4987910;28;20010;-72
2021/08/02 07:54:04;;;;;;;5.75;2.20;;;;;;;16.46;67.14;101179.94;5009112;28;20067;-72
2021/08/02 07:56:29;;;;;;;7.95;2.25;;;;;;;16.45;67.48;101173.88;5004718;28;20080;-73
2021/08/02 07:58:56;;;;;;;8.82;2.33;;;;;;;16.49;67.13;101169.91;5007755;28;20029;-73
2021/08/02 08:01:21;;;;;;;17.70;3.38;;;;;;;16.50;67.36;101181.16;4982515;28;20069;-73
2021/08/02 08:03:47;;;;;;;8.60;2.70;;;;;;;16.51;67.25;101175.75;4997634;28;20476;-72
2021/08/02 08:06:13;;;;;;;9.60;3.15;;;;;;;16.52;66.78;101184.44;4999420;28;20039;-72
2021/08/02 08:08:38;;;;;;;6.72;2.47;;;;;;;16.62;67.35;101177.06;4993811;28;20030;-72
2021/08/02 08:11:04;;;;;;;5.90;2.45;;;;;;;16.70;67.71;101173.53;4982911;28;20021;-72
2021/08/02 08:13:29;;;;;;;6.47;2.50;;;;;;;16.73;67.14;101175.78;4991675;28;20033;-73
2021/08/02 08:15:54;;;;;;;6.10;3.15;;;;;;;16.72;66.78;101187.25;4982937;28;20045;-72
2021/08/02 08:18:20;;;;;;;10.43;3.05;;;;;;;16.68;66.19;101180.75;4994866;28;20797;-71
2021/08/02 08:20:45;;;;;;;7.15;2.30;;;;;;;16.67;66.61;101185.19;4997337;28;20033;-73
2021/08/02 08:23:11;;;;;;;7.85;2.10;;;;;;;16.72;66.63;101185.41;5005684;28;20203;-73
2021/08/02 08:25:37;;;;;;;8.30;2.42;;;;;;;16.70;66.89;101187.41;4974728;28;20035;-72
2021/08/02 08:28:02;;;;;;;4.57;2.35;;;;;;;16.74;67.45;101185.25;4989316;28;20096;-72
2021/08/02 08:30:28;;;;;;;7.70;2.83;;;;;;;16.69;67.49;101190.25;5019957;28;20021;-73
2021/08/02 08:32:54;;;;;;;5.38;2.90;;;;;;;16.67;67.29;101192.22;4998244;28;20387;-72
2021/08/02 08:35:21;;;;;;;5.22;2.15;;;;;;;16.59;68.56;101189.72;4994534;28;20025;-72
2021/08/02 08:37:47;;;;;;;8.00;2.75;;;;;;;16.46;70.04;101195.63;5001016;28;20033;-74
2021/08/02 08:40:13;;;;;;;5.30;2.20;;;;;;;16.43;69.87;101202.06;4993254;28;20041;-74
2021/08/02 08:42:40;;;;;;;4.65;1.90;;;;;;;16.25;70.02;101209.50;4989197;28;20033;-74
2021/08/02 08:45:08;;;;;;;8.25;2.05;;;;;;;16.06;70.83;101195.19;4997045;28;20033;-74
2021/08/02 08:47:35;;;;;;;6.22;1.92;;;;;;;16.05;69.96;101198.78;5000996;28;20030;-74
2021/08/02 08:50:02;;;;;;;8.85;1.70;;;;;;;16.07;70.12;101196.81;4998864;28;20459;-74
2021/08/02 08:52:28;;;;;;;3.55;1.10;;;;;;;15.96;70.16;101196.28;5002608;28;20034;-74
2021/08/02 08:54:54;;;;;;;5.10;1.25;;;;;;;15.96;71.54;101206.72;5007181;28;20036;-74
2021/08/02 08:57:19;;;;;;;3.47;1.20;;;;;;;15.99;72.28;101202.94;4987300;28;20045;-74
2021/08/02 08:59:54;;;;;;;5.53;1.40;;;;;;;15.96;71.19;101205.94;5013566;28;20026;-74
2021/08/02 09:02:25;;;;;;;2.53;1.10;;;;;;;15.96;70.86;101203.31;4997221;28;20128;-74
2021/08/02 09:04:52;;;;;;;1.63;0.80;;;;;;;16.00;71.32;101209.78;5005519;28;20549;-74
2021/08/02 09:07:18;;;;;;;2.08;1.02;;;;;;;15.96;71.34;101204.13;4997810;28;20690;-74
2021/08/02 09:09:43;;;;;;;2.80;1.00;;;;;;;15.96;70.75;101206.72;5009104;28;20037;-73
2021/08/02 09:12:14;;;;;;;1.38;1.02;;;;;;;16.04;70.44;101203.19;5008777;28;20043;-73
2021/08/02 09:14:57;;;;;;;3.88;1.20;;;;;;;16.16;71.13;101200.94;5000191;28;20636;-74
2021/08/02 09:17:40;;;;;;;2.47;0.75;;;;;;;16.29;71.16;101205.50;4981425;28;20034;-73
2021/08/02 09:20:16;;;;;;;1.55;0.60;;;;;;;16.47;70.42;101205.91;5005004;28;20491;-73
2021/08/02 09:22:42;;;;;;;2.00;0.63;;;;;;;16.60;69.94;101212.31;5008117;28;20116;-73
2021/08/02 09:25:20;;;;;;;3.50;1.00;;;;;;;16.71;67.21;101201.34;4984764;28;20036;-73
2021/08/02 09:27:45;;;;;;;1.65;0.73;;;;;;;16.77;66.14;101205.81;4987302;28;20113;-73
2021/08/02 09:30:31;;;;;;;4.78;1.13;;;;;;;16.86;66.37;101207.34;5009135;28;20116;-73
2021/08/02 09:33:09;;;;;;;1.20;0.73;;;;;;;16.96;65.40;101201.00;5006837;28;20133;-72
2021/08/02 09:35:39;;;;;;;3.35;1.20;;;;;;;17.04;65.96;101209.50;5001604;28;20025;-73
2021/08/02 09:38:10;;;;;;;1.40;0.80;;;;;;;17.13;64.40;101210.19;5004158;28;20045;-72
2021/08/02 09:40:44;;;;;;;2.40;0.88;;;;;;;17.23;64.29;101208.03;4981293;28;20084;-73
2021/08/02 09:43:16;;;;;;;2.10;0.93;;;;;;;17.35;61.93;101197.03;4994225;28;20514;-72
2021/08/02 09:45:52;;;;;;;4.68;0.90;;;;;;;17.36;62.65;101193.44;5005859;28;20125;-73
2021/08/02 09:48:19;;;;;;;1.88;0.65;;;;;;;17.34;61.71;101203.31;4992439;28;20052;-73
2021/08/02 09:50:47;;;;;;;1.98;0.98;;;;;;;17.37;61.08;101197.69;5006069;28;20021;-72
2021/08/02 09:53:15;;;;;;;2.88;0.82;;;;;;;17.43;62.77;101196.91;5005093;28;20402;-73
2021/08/02 09:55:43;;;;;;;3.13;0.90;;;;;;;17.47;62.64;101198.94;4981622;28;20510;-73
2021/08/02 09:58:15;;;;;;;1.40;0.85;;;;;;;17.55;63.18;101202.44;5001399;28;20054;-73
2021/08/02 10:00:41;;;;;;;3.72;1.00;;;;;;;17.64;62.43;101202.09;5002062;28;20414;-73
2021/08/02 10:03:06;;;;;;;2.15;0.80;;;;;;;17.80;60.26;101208.00;5004583;28;20033;-73
2021/08/02 10:05:36;;;;;;;1.73;1.10;;;;;;;17.77;60.53;101198.72;5003879;28;20537;-73
2021/08/02 10:08:03;;;;;;;2.38;0.70;;;;;;;17.78;60.33;101197.75;5006880;28;20045;-73
2021/08/02 10:10:28;;;;;;;4.18;0.73;;;;;;;17.85;60.77;101198.59;5005221;28;20034;-73
2021/08/02 10:12:54;;;;;;;2.58;0.85;;;;;;;17.81;60.37;101199.94;4996542;28;20034;-73
2021/08/02 10:15:21;;;;;;;1.65;0.70;;;;;;;17.78;60.66;101202.16;5005549;28;20041;-73
2021/08/02 10:17:53;;;;;;;2.22;0.82;;;;;;;17.84;61.45;101196.97;4986181;28;20387;-73
2021/08/02 10:20:29;;;;;;;3.72;0.80;;;;;;;17.95;61.21;101192.19;5011243;28;20025;-73
2021/08/02 10:22:56;;;;;;;2.25;1.35;;;;;;;18.04;60.97;101194.44;5010320;28;20076;-73
2021/08/02 10:25:40;;;;;;;3.17;0.70;;;;;;;18.19;60.46;101194.28;4999889;28;20345;-73
2021/08/02 10:28:13;;;;;;;2.20;1.00;;;;;;;18.27;60.54;101193.31;4997884;28;20042;-73
2021/08/02 10:30:40;;;;;;;2.17;1.20;;;;;;;18.32;60.81;101197.97;5002652;28;20275;-74
2021/08/02 10:33:05;;;;;;;2.50;1.02;;;;;;;18.45;59.20;101198.81;5000744;28;20041;-73
2021/08/02 10:35:40;;;;;;;1.80;0.88;;;;;;;18.58;59.09;101187.53;4980395;28;20038;-73
2021/08/02 10:38:17;;;;;;;3.03;1.00;;;;;;;18.73;59.22;101192.59;5007249;28;20045;-73
2021/08/02 10:40:49;;;;;;;3.42;1.08;;;;;;;18.78;57.87;101189.38;5003367;28;20033;-73
2021/08/02 10:43:35;;;;;;;3.30;1.17;;;;;;;18.91;56.92;101184.19;4972498;28;21721;-73
2021/08/02 10:46:16;;;;;;;4.10;1.15;;;;;;;18.77;56.78;101196.44;5005768;28;20584;-73
2021/08/02 10:48:42;;;;;;;5.10;1.27;;;;;;;18.87;57.41;101193.44;5010129;28;20462;-73
2021/08/02 10:51:15;;;;;;;2.40;1.50;;;;;;;18.81;56.41;101187.19;4984352;28;20029;-73
2021/08/02 10:53:42;;;;;;;5.60;1.30;;;;;;;18.81;58.23;101187.19;4985312;28;20100;-73
2021/08/02 10:56:07;;;;;;;4.53;1.35;;;;;;;19.00;57.88;101182.13;5008754;28;20030;-73
2021/08/02 10:58:42;;;;;;;4.97;1.45;;;;;;;18.91;57.78;101175.47;5005238;28;20040;-73
2021/08/02 11:01:13;;;;;;;6.68;1.40;;;;;;;18.99;57.79;101185.78;4997046;28;20069;-73
2021/08/02 11:03:42;;;;;;;2.13;1.10;;;;;;;19.14;57.59;101181.13;4998721;28;20391;-74
2021/08/02 11:06:11;;;;;;;5.90;1.67;;;;;;;19.12;57.74;101183.16;5002796;28;20100;-73
2021/08/02 11:08:43;;;;;;;2.38;1.00;;;;;;;19.19;56.57;101188.41;4990906;28;20026;-73
2021/08/02 11:11:17;;;;;;;2.78;1.02;;;;;;;19.36;56.83;101180.91;4997054;28;20037;-73
2021/08/02 11:13:43;;;;;;;2.60;1.38;;;;;;;19.67;55.59;101182.06;5001583;28;20028;-74
2021/08/02 11:16:09;;;;;;;1.65;1.17;;;;;;;19.77;54.72;101182.44;4989484;28;20443;-74
2021/08/02 11:18:34;;;;;;;2.95;1.40;;;;;;;19.67;53.34;101182.06;4998616;28;20034;-74
2021/08/02 11:21:00;;;;;;;4.40;1.25;;;;;;;19.64;55.37;101183.25;4983965;28;20034;-74
2021/08/02 11:23:36;;;;;;;3.75;1.48;;;;;;;19.62;56.73;101178.19;4995150;28;20403;-74
2021/08/02 11:26:09;;;;;;;2.53;1.20;;;;;;;19.62;56.16;101183.47;4998981;28;20038;-74
2021/08/02 11:28:43;;;;;;;5.18;1.50;;;;;;;19.74;56.70;101183.69;5000881;28;20481;-73
2021/08/02 11:31:10;;;;;;;5.47;1.80;;;;;;;19.73;55.48;101187.31;5006457;28;20028;-74